sensor_id;sensor_type;location;lat;lon;timestamp;P1;durP1;ratioP1;P2;durP2;ratioP2
59294;SDS011;45067;44.654;20.200;2023-02-19T00:02:21;53.72;;;34.72;;
59294;SDS011;45067;44.654;20.200;2023-02-19T00:04:47;54.42;;;33.22;;
59294;SDS011;45067;44.654;20.200;2023-02-19T00:07:13;66.13;;;36.80;;
59294;SDS011;45067;44.654;20.200;2023-02-19T00:09:39;57.25;;;33.70;;
59294;SDS011;45067;44.654;20.200;2023-02-19T00:15:08;59.72;;;35.05;;
59294;SDS011;45067;44.654;20.200;2023-02-19T00:17:34;55.95;;;35.50;;
59294;SDS011;45067;44.654;20.200;2023-02-19T00:20:00;60.95;;;36.80;;
59294;SDS011;45067;44.654;20.200;2023-02-19T00:22:26;59.67;;;37.40;;
59294;SDS011;45067;44.654;20.200;2023-02-19T00:24:52;65.72;;;40.08;;
59294;SDS011;45067;44.654;20.200;2023-02-19T00:27:18;71.00;;;43.60;;
59294;SDS011;45067;44.654;20.200;2023-02-19T00:29:44;82.75;;;46.72;;
59294;SDS011;45067;44.654;20.200;2023-02-19T00:32:10;88.47;;;48.78;;
59294;SDS011;45067;44.654;20.200;2023-02-19T00:34:36;88.45;;;49.33;;
59294;SDS011;45067;44.654;20.200;2023-02-19T00:37:02;84.03;;;48.30;;
59294;SDS011;45067;44.654;20.200;2023-02-19T00:39:28;83.93;;;48.03;;
59294;SDS011;45067;44.654;20.200;2023-02-19T00:44:58;79.75;;;46.45;;
59294;SDS011;45067;44.654;20.200;2023-02-19T00:47:24;79.00;;;45.45;;
59294;SDS011;45067;44.654;20.200;2023-02-19T00:49:50;80.82;;;44.15;;
59294;SDS011;45067;44.654;20.200;2023-02-19T00:52:16;74.78;;;43.83;;
59294;SDS011;45067;44.654;20.200;2023-02-19T00:54:42;71.05;;;40.60;;
59294;SDS011;45067;44.654;20.200;2023-02-19T01:00:12;70.80;;;39.38;;
59294;SDS011;45067;44.654;20.200;2023-02-19T01:02:38;73.55;;;42.10;;
59294;SDS011;45067;44.654;20.200;2023-02-19T01:05:04;75.20;;;42.63;;
59294;SDS011;45067;44.654;20.200;2023-02-19T01:07:30;72.15;;;41.80;;
59294;SDS011;45067;44.654;20.200;2023-02-19T01:09:56;75.18;;;44.92;;
59294;SDS011;45067;44.654;20.200;2023-02-19T01:15:26;82.68;;;44.88;;
59294;SDS011;45067;44.654;20.200;2023-02-19T01:17:52;77.00;;;43.00;;
59294;SDS011;45067;44.654;20.200;2023-02-19T01:20:18;76.05;;;41.63;;
59294;SDS011;45067;44.654;20.200;2023-02-19T01:22:44;67.70;;;39.63;;
59294;SDS011;45067;44.654;20.200;2023-02-19T01:25:10;72.15;;;41.50;;
59294;SDS011;45067;44.654;20.200;2023-02-19T01:27:36;69.95;;;41.92;;
59294;SDS011;45067;44.654;20.200;2023-02-19T01:30:02;71.53;;;41.63;;
59294;SDS011;45067;44.654;20.200;2023-02-19T01:32:28;68.78;;;40.95;;
59294;SDS011;45067;44.654;20.200;2023-02-19T01:34:54;72.15;;;41.05;;
59294;SDS011;45067;44.654;20.200;2023-02-19T01:37:20;70.47;;;39.63;;
59294;SDS011;45067;44.654;20.200;2023-02-19T01:39:46;69.43;;;39.50;;
59294;SDS011;45067;44.654;20.200;2023-02-19T01:45:23;69.45;;;41.08;;
59294;SDS011;45067;44.654;20.200;2023-02-19T01:47:54;71.38;;;40.33;;
59294;SDS011;45067;44.654;20.200;2023-02-19T01:50:22;72.35;;;41.30;;
59294;SDS011;45067;44.654;20.200;2023-02-19T01:52:49;70.30;;;41.90;;
59294;SDS011;45067;44.654;20.200;2023-02-19T01:55:15;67.65;;;39.22;;
59294;SDS011;45067;44.654;20.200;2023-02-19T02:00:45;65.40;;;38.08;;
59294;SDS011;45067;44.654;20.200;2023-02-19T02:03:11;68.70;;;39.03;;
59294;SDS011;45067;44.654;20.200;2023-02-19T02:05:45;60.42;;;35.28;;
59294;SDS011;45067;44.654;20.200;2023-02-19T02:08:15;64.75;;;38.90;;
59294;SDS011;45067;44.654;20.200;2023-02-19T02:11:01;64.45;;;38.83;;
59294;SDS011;45067;44.654;20.200;2023-02-19T02:13:27;59.22;;;36.03;;
59294;SDS011;45067;44.654;20.200;2023-02-19T02:15:59;61.28;;;37.15;;
59294;SDS011;45067;44.654;20.200;2023-02-19T02:18:36;65.55;;;38.33;;
59294;SDS011;45067;44.654;20.200;2023-02-19T02:26:15;62.55;;;37.53;;
59294;SDS011;45067;44.654;20.200;2023-02-19T02:31:16;59.75;;;36.35;;
59294;SDS011;45067;44.654;20.200;2023-02-19T02:33:49;60.55;;;36.65;;
59294;SDS011;45067;44.654;20.200;2023-02-19T02:38:44;67.32;;;39.70;;
59294;SDS011;45067;44.654;20.200;2023-02-19T02:41:12;68.85;;;40.53;;
59294;SDS011;45067;44.654;20.200;2023-02-19T02:43:38;66.15;;;39.28;;
59294;SDS011;45067;44.654;20.200;2023-02-19T02:46:04;65.93;;;38.00;;
59294;SDS011;45067;44.654;20.200;2023-02-19T02:48:32;66.00;;;39.88;;
59294;SDS011;45067;44.654;20.200;2023-02-19T02:53:28;66.50;;;37.83;;
59294;SDS011;45067;44.654;20.200;2023-02-19T02:56:14;63.22;;;36.55;;
59294;SDS011;45067;44.654;20.200;2023-02-19T02:58:41;62.05;;;34.60;;
59294;SDS011;45067;44.654;20.200;2023-02-19T03:01:08;62.85;;;35.40;;
59294;SDS011;45067;44.654;20.200;2023-02-19T03:03:56;61.30;;;38.40;;
59294;SDS011;45067;44.654;20.200;2023-02-19T03:06:24;59.83;;;34.92;;
59294;SDS011;45067;44.654;20.200;2023-02-19T03:08:55;55.97;;;33.20;;
59294;SDS011;45067;44.654;20.200;2023-02-19T03:11:23;52.83;;;32.00;;
59294;SDS011;45067;44.654;20.200;2023-02-19T03:14:10;57.67;;;31.73;;
59294;SDS011;45067;44.654;20.200;2023-02-19T03:16:57;56.42;;;33.53;;
59294;SDS011;45067;44.654;20.200;2023-02-19T03:19:51;44.42;;;28.05;;
59294;SDS011;45067;44.654;20.200;2023-02-19T03:22:20;46.28;;;28.55;;
59294;SDS011;45067;44.654;20.200;2023-02-19T03:24:54;53.28;;;32.63;;
59294;SDS011;45067;44.654;20.200;2023-02-19T03:27:40;54.25;;;33.58;;
59294;SDS011;45067;44.654;20.200;2023-02-19T03:30:09;61.28;;;34.92;;
59294;SDS011;45067;44.654;20.200;2023-02-19T03:32:41;50.50;;;30.58;;
59294;SDS011;45067;44.654;20.200;2023-02-19T03:35:13;45.75;;;28.77;;
59294;SDS011;45067;44.654;20.200;2023-02-19T03:37:40;51.80;;;32.42;;
59294;SDS011;45067;44.654;20.200;2023-02-19T03:40:07;57.08;;;33.58;;
59294;SDS011;45067;44.654;20.200;2023-02-19T03:42:40;51.80;;;33.13;;
59294;SDS011;45067;44.654;20.200;2023-02-19T03:50:33;57.65;;;35.67;;
59294;SDS011;45067;44.654;20.200;2023-02-19T03:53:06;62.28;;;36.28;;
59294;SDS011;45067;44.654;20.200;2023-02-19T03:55:59;59.47;;;35.85;;
59294;SDS011;45067;44.654;20.200;2023-02-19T04:01:54;65.40;;;36.47;;
59294;SDS011;45067;44.654;20.200;2023-02-19T04:04:29;63.88;;;36.42;;
59294;SDS011;45067;44.654;20.200;2023-02-19T04:06:57;60.25;;;35.90;;
59294;SDS011;45067;44.654;20.200;2023-02-19T04:09:24;67.07;;;36.50;;
59294;SDS011;45067;44.654;20.200;2023-02-19T04:14:58;64.60;;;37.47;;
59294;SDS011;45067;44.654;20.200;2023-02-19T04:17:34;67.68;;;37.30;;
59294;SDS011;45067;44.654;20.200;2023-02-19T04:20:01;67.18;;;37.08;;
59294;SDS011;45067;44.654;20.200;2023-02-19T04:22:28;63.15;;;34.97;;
59294;SDS011;45067;44.654;20.200;2023-02-19T04:24:55;67.22;;;37.95;;
59294;SDS011;45067;44.654;20.200;2023-02-19T04:30:24;68.80;;;36.92;;
59294;SDS011;45067;44.654;20.200;2023-02-19T04:32:50;58.83;;;34.63;;
59294;SDS011;45067;44.654;20.200;2023-02-19T04:35:16;59.30;;;35.33;;
59294;SDS011;45067;44.654;20.200;2023-02-19T04:37:42;64.50;;;36.28;;
59294;SDS011;45067;44.654;20.200;2023-02-19T04:40:08;60.83;;;36.28;;
59294;SDS011;45067;44.654;20.200;2023-02-19T04:45:38;61.85;;;33.55;;
59294;SDS011;45067;44.654;20.200;2023-02-19T04:48:04;56.08;;;33.03;;
59294;SDS011;45067;44.654;20.200;2023-02-19T04:50:30;50.40;;;30.70;;
59294;SDS011;45067;44.654;20.200;2023-02-19T04:52:56;57.38;;;32.30;;
59294;SDS011;45067;44.654;20.200;2023-02-19T04:55:22;51.88;;;30.85;;
59294;SDS011;45067;44.654;20.200;2023-02-19T05:00:52;59.17;;;32.15;;
59294;SDS011;45067;44.654;20.200;2023-02-19T05:03:18;61.35;;;32.55;;
59294;SDS011;45067;44.654;20.200;2023-02-19T05:05:44;52.42;;;31.58;;
59294;SDS011;45067;44.654;20.200;2023-02-19T05:08:10;50.20;;;30.17;;
59294;SDS011;45067;44.654;20.200;2023-02-19T05:10:36;48.75;;;28.77;;
59294;SDS011;45067;44.654;20.200;2023-02-19T05:16:08;46.30;;;25.55;;
59294;SDS011;45067;44.654;20.200;2023-02-19T05:18:34;49.05;;;28.00;;
59294;SDS011;45067;44.654;20.200;2023-02-19T05:21:00;50.53;;;29.70;;
59294;SDS011;45067;44.654;20.200;2023-02-19T05:23:26;51.40;;;30.73;;
59294;SDS011;45067;44.654;20.200;2023-02-19T05:25:53;49.72;;;28.13;;
59294;SDS011;45067;44.654;20.200;2023-02-19T05:31:22;48.65;;;28.75;;
59294;SDS011;45067;44.654;20.200;2023-02-19T05:33:48;49.75;;;29.00;;
59294;SDS011;45067;44.654;20.200;2023-02-19T05:36:18;54.78;;;31.25;;
59294;SDS011;45067;44.654;20.200;2023-02-19T05:38:44;56.80;;;31.00;;
59294;SDS011;45067;44.654;20.200;2023-02-19T05:46:40;51.72;;;29.52;;
59294;SDS011;45067;44.654;20.200;2023-02-19T05:49:06;50.35;;;30.65;;
59294;SDS011;45067;44.654;20.200;2023-02-19T05:51:32;55.30;;;31.20;;
59294;SDS011;45067;44.654;20.200;2023-02-19T05:53:58;51.03;;;31.67;;
59294;SDS011;45067;44.654;20.200;2023-02-19T06:01:54;55.88;;;33.47;;
59294;SDS011;45067;44.654;20.200;2023-02-19T06:04:22;50.70;;;31.90;;
59294;SDS011;45067;44.654;20.200;2023-02-19T06:06:48;52.20;;;32.65;;
59294;SDS011;45067;44.654;20.200;2023-02-19T06:09:14;55.95;;;32.65;;
59294;SDS011;45067;44.654;20.200;2023-02-19T06:11:40;53.17;;;32.78;;
59294;SDS011;45067;44.654;20.200;2023-02-19T06:17:20;50.95;;;32.10;;
59294;SDS011;45067;44.654;20.200;2023-02-19T06:19:46;52.25;;;30.58;;
59294;SDS011;45067;44.654;20.200;2023-02-19T06:22:12;52.05;;;31.48;;
59294;SDS011;45067;44.654;20.200;2023-02-19T06:24:39;52.13;;;30.85;;
59294;SDS011;45067;44.654;20.200;2023-02-19T06:27:05;54.25;;;31.98;;
59294;SDS011;45067;44.654;20.200;2023-02-19T06:29:31;54.05;;;31.52;;
59294;SDS011;45067;44.654;20.200;2023-02-19T06:31:58;49.83;;;30.67;;
59294;SDS011;45067;44.654;20.200;2023-02-19T06:34:24;48.25;;;30.60;;
59294;SDS011;45067;44.654;20.200;2023-02-19T06:36:50;53.85;;;30.50;;
59294;SDS011;45067;44.654;20.200;2023-02-19T06:39:16;50.95;;;31.25;;
59294;SDS011;45067;44.654;20.200;2023-02-19T06:41:42;50.83;;;31.00;;
59294;SDS011;45067;44.654;20.200;2023-02-19T06:47:11;48.70;;;29.73;;
59294;SDS011;45067;44.654;20.200;2023-02-19T06:49:38;50.17;;;30.75;;
59294;SDS011;45067;44.654;20.200;2023-02-19T06:52:04;50.92;;;31.20;;
59294;SDS011;45067;44.654;20.200;2023-02-19T06:54:30;50.00;;;30.50;;
59294;SDS011;45067;44.654;20.200;2023-02-19T06:56:57;48.63;;;30.30;;
59294;SDS011;45067;44.654;20.200;2023-02-19T06:59:24;52.35;;;30.38;;
59294;SDS011;45067;44.654;20.200;2023-02-19T07:01:50;52.25;;;31.25;;
59294;SDS011;45067;44.654;20.200;2023-02-19T07:04:16;52.60;;;31.98;;
59294;SDS011;45067;44.654;20.200;2023-02-19T07:06:42;50.22;;;29.65;;
59294;SDS011;45067;44.654;20.200;2023-02-19T07:09:09;50.05;;;29.95;;
59294;SDS011;45067;44.654;20.200;2023-02-19T07:11:36;45.60;;;27.83;;
59294;SDS011;45067;44.654;20.200;2023-02-19T07:17:06;39.22;;;24.20;;
59294;SDS011;45067;44.654;20.200;2023-02-19T07:19:32;38.90;;;24.88;;
59294;SDS011;45067;44.654;20.200;2023-02-19T07:21:58;43.10;;;24.55;;
59294;SDS011;45067;44.654;20.200;2023-02-19T07:24:24;45.17;;;24.95;;
59294;SDS011;45067;44.654;20.200;2023-02-19T07:26:50;43.45;;;25.00;;
59294;SDS011;45067;44.654;20.200;2023-02-19T07:32:20;37.95;;;23.67;;
59294;SDS011;45067;44.654;20.200;2023-02-19T07:34:46;39.50;;;24.58;;
59294;SDS011;45067;44.654;20.200;2023-02-19T07:37:12;43.88;;;24.50;;
59294;SDS011;45067;44.654;20.200;2023-02-19T07:39:38;38.85;;;24.40;;
59294;SDS011;45067;44.654;20.200;2023-02-19T07:42:04;36.45;;;23.65;;
59294;SDS011;45067;44.654;20.200;2023-02-19T07:47:33;39.67;;;21.67;;
59294;SDS011;45067;44.654;20.200;2023-02-19T07:49:59;38.85;;;24.13;;
59294;SDS011;45067;44.654;20.200;2023-02-19T07:52:25;40.35;;;24.58;;
59294;SDS011;45067;44.654;20.200;2023-02-19T07:54:52;41.95;;;26.02;;
59294;SDS011;45067;44.654;20.200;2023-02-19T07:57:18;42.35;;;25.25;;
59294;SDS011;45067;44.654;20.200;2023-02-19T07:59:44;43.78;;;25.25;;
59294;SDS011;45067;44.654;20.200;2023-02-19T08:02:14;42.20;;;23.92;;
59294;SDS011;45067;44.654;20.200;2023-02-19T08:04:59;36.40;;;23.55;;
59294;SDS011;45067;44.654;20.200;2023-02-19T08:07:32;40.05;;;22.92;;
59294;SDS011;45067;44.654;20.200;2023-02-19T08:09:59;44.05;;;23.05;;
59294;SDS011;45067;44.654;20.200;2023-02-19T08:12:43;38.88;;;25.55;;
59294;SDS011;45067;44.654;20.200;2023-02-19T08:15:28;39.55;;;25.17;;
59294;SDS011;45067;44.654;20.200;2023-02-19T08:17:54;38.35;;;25.00;;
59294;SDS011;45067;44.654;20.200;2023-02-19T08:20:20;37.53;;;24.42;;
59294;SDS011;45067;44.654;20.200;2023-02-19T08:22:46;41.20;;;26.35;;
59294;SDS011;45067;44.654;20.200;2023-02-19T08:25:12;45.80;;;25.98;;
59294;SDS011;45067;44.654;20.200;2023-02-19T08:27:38;43.38;;;27.90;;
59294;SDS011;45067;44.654;20.200;2023-02-19T08:30:07;44.35;;;28.23;;
59294;SDS011;45067;44.654;20.200;2023-02-19T08:32:33;43.83;;;28.45;;
59294;SDS011;45067;44.654;20.200;2023-02-19T08:34:59;44.15;;;28.30;;
59294;SDS011;45067;44.654;20.200;2023-02-19T08:37:25;41.25;;;24.35;;
59294;SDS011;45067;44.654;20.200;2023-02-19T08:39:52;35.47;;;22.85;;
59294;SDS011;45067;44.654;20.200;2023-02-19T08:42:18;33.28;;;22.10;;
59294;SDS011;45067;44.654;20.200;2023-02-19T08:47:47;30.77;;;19.38;;
59294;SDS011;45067;44.654;20.200;2023-02-19T08:50:13;34.70;;;21.27;;
59294;SDS011;45067;44.654;20.200;2023-02-19T08:52:39;31.00;;;20.17;;
59294;SDS011;45067;44.654;20.200;2023-02-19T08:55:05;36.50;;;24.30;;
59294;SDS011;45067;44.654;20.200;2023-02-19T08:57:34;34.42;;;23.17;;
59294;SDS011;45067;44.654;20.200;2023-02-19T09:00:02;37.13;;;22.33;;
59294;SDS011;45067;44.654;20.200;2023-02-19T09:02:28;34.55;;;22.17;;
59294;SDS011;45067;44.654;20.200;2023-02-19T09:04:55;35.97;;;23.98;;
59294;SDS011;45067;44.654;20.200;2023-02-19T09:07:24;29.02;;;19.23;;
59294;SDS011;45067;44.654;20.200;2023-02-19T09:09:50;32.08;;;20.77;;
59294;SDS011;45067;44.654;20.200;2023-02-19T09:12:17;34.05;;;22.00;;
59294;SDS011;45067;44.654;20.200;2023-02-19T09:17:50;30.65;;;19.10;;
59294;SDS011;45067;44.654;20.200;2023-02-19T09:20:17;37.88;;;23.33;;
59294;SDS011;45067;44.654;20.200;2023-02-19T09:22:43;32.15;;;20.45;;
59294;SDS011;45067;44.654;20.200;2023-02-19T09:25:11;31.98;;;19.98;;
59294;SDS011;45067;44.654;20.200;2023-02-19T09:27:37;30.13;;;19.83;;
59294;SDS011;45067;44.654;20.200;2023-02-19T09:30:03;30.63;;;20.25;;
59294;SDS011;45067;44.654;20.200;2023-02-19T09:32:30;31.05;;;20.23;;
59294;SDS011;45067;44.654;20.200;2023-02-19T09:34:56;32.63;;;19.95;;
59294;SDS011;45067;44.654;20.200;2023-02-19T09:37:26;35.13;;;21.92;;
59294;SDS011;45067;44.654;20.200;2023-02-19T09:39:53;32.78;;;22.40;;
59294;SDS011;45067;44.654;20.200;2023-02-19T09:42:19;30.10;;;19.63;;
59294;SDS011;45067;44.654;20.200;2023-02-19T09:47:54;28.05;;;19.33;;
59294;SDS011;45067;44.654;20.200;2023-02-19T09:50:22;29.38;;;19.00;;
59294;SDS011;45067;44.654;20.200;2023-02-19T09:52:50;26.02;;;18.60;;
59294;SDS011;45067;44.654;20.200;2023-02-19T09:55:34;26.23;;;17.67;;
59294;SDS011;45067;44.654;20.200;2023-02-19T09:58:35;26.02;;;16.23;;
59294;SDS011;45067;44.654;20.200;2023-02-19T10:00:54;22.15;;;14.85;;
59294;SDS011;45067;44.654;20.200;2023-02-19T10:05:47;14.98;;;10.48;;
59294;SDS011;45067;44.654;20.200;2023-02-19T10:08:14;20.30;;;9.52;;
59294;SDS011;45067;44.654;20.200;2023-02-19T10:10:43;14.55;;;9.38;;
59294;SDS011;45067;44.654;20.200;2023-02-19T10:15:41;13.32;;;8.45;;
59294;SDS011;45067;44.654;20.200;2023-02-19T10:18:08;12.88;;;8.65;;
59294;SDS011;45067;44.654;20.200;2023-02-19T10:20:34;14.23;;;8.60;;
59294;SDS011;45067;44.654;20.200;2023-02-19T10:23:02;14.85;;;8.88;;
59294;SDS011;45067;44.654;20.200;2023-02-19T10:25:28;12.35;;;8.32;;
59294;SDS011;45067;44.654;20.200;2023-02-19T10:27:58;15.73;;;9.02;;
59294;SDS011;45067;44.654;20.200;2023-02-19T10:30:32;12.48;;;8.82;;
59294;SDS011;45067;44.654;20.200;2023-02-19T10:33:03;16.05;;;9.68;;
59294;SDS011;45067;44.654;20.200;2023-02-19T10:35:29;17.05;;;9.25;;
59294;SDS011;45067;44.654;20.200;2023-02-19T10:37:59;16.73;;;9.18;;
59294;SDS011;45067;44.654;20.200;2023-02-19T10:40:26;13.45;;;8.90;;
59294;SDS011;45067;44.654;20.200;2023-02-19T10:42:53;14.43;;;8.30;;
59294;SDS011;45067;44.654;20.200;2023-02-19T10:48:33;12.95;;;8.73;;
59294;SDS011;45067;44.654;20.200;2023-02-19T10:51:01;14.05;;;9.40;;
59294;SDS011;45067;44.654;20.200;2023-02-19T10:56:22;14.05;;;9.02;;
59294;SDS011;45067;44.654;20.200;2023-02-19T10:58:48;14.57;;;8.60;;
59294;SDS011;45067;44.654;20.200;2023-02-19T11:01:22;17.40;;;9.60;;
59294;SDS011;45067;44.654;20.200;2023-02-19T11:04:13;13.05;;;8.57;;
59294;SDS011;45067;44.654;20.200;2023-02-19T11:06:35;14.95;;;8.55;;
59294;SDS011;45067;44.654;20.200;2023-02-19T11:09:01;10.23;;;7.68;;
59294;SDS011;45067;44.654;20.200;2023-02-19T11:11:34;12.63;;;7.65;;
59294;SDS011;45067;44.654;20.200;2023-02-19T11:14:22;13.65;;;8.38;;
59294;SDS011;45067;44.654;20.200;2023-02-19T11:21:59;11.15;;;8.60;;
59294;SDS011;45067;44.654;20.200;2023-02-19T11:24:31;14.45;;;9.45;;
59294;SDS011;45067;44.654;20.200;2023-02-19T11:27:02;14.98;;;10.65;;
59294;SDS011;45067;44.654;20.200;2023-02-19T11:29:30;12.70;;;8.73;;
59294;SDS011;45067;44.654;20.200;2023-02-19T11:34:43;12.02;;;7.90;;
59294;SDS011;45067;44.654;20.200;2023-02-19T11:37:12;13.02;;;7.85;;
59294;SDS011;45067;44.654;20.200;2023-02-19T11:39:39;11.07;;;8.33;;
59294;SDS011;45067;44.654;20.200;2023-02-19T11:55:23;15.73;;;10.02;;
59294;SDS011;45067;44.654;20.200;2023-02-19T11:57:56;11.60;;;8.65;;
59294;SDS011;45067;44.654;20.200;2023-02-19T12:00:26;14.52;;;8.88;;
59294;SDS011;45067;44.654;20.200;2023-02-19T12:13:02;15.55;;;9.73;;
59294;SDS011;45067;44.654;20.200;2023-02-19T12:26:05;12.93;;;8.73;;
59294;SDS011;45067;44.654;20.200;2023-02-19T12:34:32;15.23;;;10.65;;
59294;SDS011;45067;44.654;20.200;2023-02-19T12:47:39;22.55;;;19.55;;
59294;SDS011;45067;44.654;20.200;2023-02-19T12:50:23;20.08;;;17.95;;
59294;SDS011;45067;44.654;20.200;2023-02-19T12:52:51;13.90;;;11.15;;
59294;SDS011;45067;44.654;20.200;2023-02-19T12:55:29;11.82;;;9.55;;
59294;SDS011;45067;44.654;20.200;2023-02-19T12:57:58;12.80;;;10.00;;
59294;SDS011;45067;44.654;20.200;2023-02-19T13:03:37;12.00;;;9.57;;
59294;SDS011;45067;44.654;20.200;2023-02-19T13:06:15;14.15;;;12.38;;
59294;SDS011;45067;44.654;20.200;2023-02-19T13:08:49;11.18;;;8.48;;
59294;SDS011;45067;44.654;20.200;2023-02-19T13:11:21;13.38;;;10.23;;
59294;SDS011;45067;44.654;20.200;2023-02-19T13:16:32;11.88;;;6.80;;
59294;SDS011;45067;44.654;20.200;2023-02-19T13:19:02;9.20;;;6.10;;
59294;SDS011;45067;44.654;20.200;2023-02-19T13:21:31;12.73;;;9.43;;
59294;SDS011;45067;44.654;20.200;2023-02-19T13:24:29;13.80;;;8.95;;
59294;SDS011;45067;44.654;20.200;2023-02-19T13:31:52;8.15;;;6.38;;
59294;SDS011;45067;44.654;20.200;2023-02-19T13:34:25;8.85;;;6.03;;
59294;SDS011;45067;44.654;20.200;2023-02-19T13:36:57;9.25;;;6.43;;
59294;SDS011;45067;44.654;20.200;2023-02-19T13:39:24;8.60;;;6.18;;
59294;SDS011;45067;44.654;20.200;2023-02-19T13:41:50;9.25;;;6.00;;
59294;SDS011;45067;44.654;20.200;2023-02-19T13:44:21;9.55;;;6.05;;
59294;SDS011;45067;44.654;20.200;2023-02-19T13:46:48;8.05;;;5.72;;
59294;SDS011;45067;44.654;20.200;2023-02-19T13:49:32;11.68;;;5.88;;
59294;SDS011;45067;44.654;20.200;2023-02-19T13:54:46;8.05;;;5.38;;
59294;SDS011;45067;44.654;20.200;2023-02-19T13:57:24;7.00;;;4.97;;
59294;SDS011;45067;44.654;20.200;2023-02-19T13:59:52;10.48;;;5.85;;
59294;SDS011;45067;44.654;20.200;2023-02-19T14:04:52;8.98;;;5.45;;
59294;SDS011;45067;44.654;20.200;2023-02-19T14:07:20;7.82;;;5.53;;
59294;SDS011;45067;44.654;20.200;2023-02-19T14:09:47;11.15;;;6.53;;
59294;SDS011;45067;44.654;20.200;2023-02-19T14:24:53;9.80;;;6.50;;
59294;SDS011;45067;44.654;20.200;2023-02-19T14:27:20;11.05;;;6.47;;
59294;SDS011;45067;44.654;20.200;2023-02-19T14:29:46;8.88;;;6.13;;
59294;SDS011;45067;44.654;20.200;2023-02-19T14:32:18;10.10;;;6.70;;
59294;SDS011;45067;44.654;20.200;2023-02-19T14:34:44;9.63;;;6.65;;
59294;SDS011;45067;44.654;20.200;2023-02-19T14:37:20;11.27;;;7.30;;
59294;SDS011;45067;44.654;20.200;2023-02-19T14:39:47;15.50;;;10.50;;
59294;SDS011;45067;44.654;20.200;2023-02-19T14:42:16;12.45;;;9.60;;
59294;SDS011;45067;44.654;20.200;2023-02-19T14:44:53;16.00;;;12.80;;
59294;SDS011;45067;44.654;20.200;2023-02-19T14:47:22;22.00;;;16.75;;
59294;SDS011;45067;44.654;20.200;2023-02-19T14:54:47;34.83;;;25.80;;
59294;SDS011;45067;44.654;20.200;2023-02-19T14:57:22;28.58;;;23.13;;
59294;SDS011;45067;44.654;20.200;2023-02-19T14:59:50;24.92;;;19.60;;
59294;SDS011;45067;44.654;20.200;2023-02-19T15:02:18;25.85;;;21.92;;
59294;SDS011;45067;44.654;20.200;2023-02-19T15:04:50;26.17;;;19.58;;
59294;SDS011;45067;44.654;20.200;2023-02-19T15:07:18;23.30;;;17.67;;
59294;SDS011;45067;44.654;20.200;2023-02-19T15:09:52;26.10;;;19.95;;
59294;SDS011;45067;44.654;20.200;2023-02-19T15:12:21;20.80;;;14.43;;
59294;SDS011;45067;44.654;20.200;2023-02-19T15:14:48;17.52;;;11.75;;
59294;SDS011;45067;44.654;20.200;2023-02-19T15:17:19;14.68;;;10.75;;
59294;SDS011;45067;44.654;20.200;2023-02-19T15:19:47;15.07;;;10.10;;
59294;SDS011;45067;44.654;20.200;2023-02-19T15:22:18;13.70;;;8.68;;
59294;SDS011;45067;44.654;20.200;2023-02-19T15:24:45;15.95;;;10.85;;
59294;SDS011;45067;44.654;20.200;2023-02-19T15:27:15;15.20;;;9.93;;
59294;SDS011;45067;44.654;20.200;2023-02-19T15:29:48;17.67;;;10.75;;
59294;SDS011;45067;44.654;20.200;2023-02-19T15:32:15;18.33;;;10.43;;
59294;SDS011;45067;44.654;20.200;2023-02-19T15:34:47;15.05;;;9.88;;
59294;SDS011;45067;44.654;20.200;2023-02-19T15:37:17;20.67;;;12.55;;
59294;SDS011;45067;44.654;20.200;2023-02-19T15:39:44;19.42;;;11.70;;
59294;SDS011;45067;44.654;20.200;2023-02-19T15:42:16;16.80;;;11.60;;
59294;SDS011;45067;44.654;20.200;2023-02-19T15:47:16;16.38;;;10.45;;
59294;SDS011;45067;44.654;20.200;2023-02-19T15:49:45;14.18;;;9.60;;
59294;SDS011;45067;44.654;20.200;2023-02-19T15:52:20;14.65;;;10.00;;
59294;SDS011;45067;44.654;20.200;2023-02-19T15:54:51;14.18;;;9.88;;
59294;SDS011;45067;44.654;20.200;2023-02-19T15:57:20;14.77;;;9.95;;
59294;SDS011;45067;44.654;20.200;2023-02-19T15:59:49;16.17;;;10.23;;
59294;SDS011;45067;44.654;20.200;2023-02-19T16:02:17;13.13;;;9.80;;
59294;SDS011;45067;44.654;20.200;2023-02-19T16:04:43;17.40;;;10.88;;
59294;SDS011;45067;44.654;20.200;2023-02-19T16:07:25;16.95;;;11.35;;
59294;SDS011;45067;44.654;20.200;2023-02-19T16:10:04;19.33;;;11.23;;
59294;SDS011;45067;44.654;20.200;2023-02-19T16:12:31;15.48;;;10.50;;
59294;SDS011;45067;44.654;20.200;2023-02-19T16:14:57;17.73;;;10.63;;
59294;SDS011;45067;44.654;20.200;2023-02-19T16:17:23;14.82;;;9.98;;
59294;SDS011;45067;44.654;20.200;2023-02-19T16:19:55;13.43;;;9.38;;
59294;SDS011;45067;44.654;20.200;2023-02-19T16:22:40;15.88;;;9.20;;
59294;SDS011;45067;44.654;20.200;2023-02-19T16:25:07;11.88;;;7.95;;
59294;SDS011;45067;44.654;20.200;2023-02-19T16:27:46;15.93;;;9.52;;
59294;SDS011;45067;44.654;20.200;2023-02-19T16:32:41;15.73;;;9.10;;
59294;SDS011;45067;44.654;20.200;2023-02-19T16:37:57;17.85;;;10.43;;
59294;SDS011;45067;44.654;20.200;2023-02-19T16:45:16;16.20;;;9.10;;
59294;SDS011;45067;44.654;20.200;2023-02-19T16:47:42;14.32;;;9.00;;
59294;SDS011;45067;44.654;20.200;2023-02-19T16:50:24;17.23;;;9.73;;
59294;SDS011;45067;44.654;20.200;2023-02-19T16:52:58;16.88;;;10.40;;
59294;SDS011;45067;44.654;20.200;2023-02-19T16:55:25;17.42;;;9.77;;
59294;SDS011;45067;44.654;20.200;2023-02-19T16:57:51;18.38;;;10.23;;
59294;SDS011;45067;44.654;20.200;2023-02-19T17:00:18;19.88;;;13.32;;
59294;SDS011;45067;44.654;20.200;2023-02-19T17:02:45;21.73;;;13.23;;
59294;SDS011;45067;44.654;20.200;2023-02-19T17:05:12;34.03;;;19.10;;
59294;SDS011;45067;44.654;20.200;2023-02-19T17:07:38;27.08;;;18.02;;
59294;SDS011;45067;44.654;20.200;2023-02-19T17:10:04;25.98;;;17.00;;
59294;SDS011;45067;44.654;20.200;2023-02-19T17:12:30;28.77;;;17.27;;
59294;SDS011;45067;44.654;20.200;2023-02-19T17:14:56;23.80;;;14.55;;
59294;SDS011;45067;44.654;20.200;2023-02-19T17:20:27;25.23;;;15.85;;
59294;SDS011;45067;44.654;20.200;2023-02-19T17:22:54;22.27;;;13.90;;
59294;SDS011;45067;44.654;20.200;2023-02-19T17:25:20;24.38;;;13.13;;
59294;SDS011;45067;44.654;20.200;2023-02-19T17:27:46;25.88;;;16.52;;
59294;SDS011;45067;44.654;20.200;2023-02-19T17:30:14;26.42;;;14.90;;
59294;SDS011;45067;44.654;20.200;2023-02-19T17:36:04;43.28;;;22.08;;
59294;SDS011;45067;44.654;20.200;2023-02-19T17:38:30;45.83;;;26.67;;
59294;SDS011;45067;44.654;20.200;2023-02-19T17:40:56;44.30;;;25.90;;
59294;SDS011;45067;44.654;20.200;2023-02-19T17:43:22;44.30;;;26.23;;
59294;SDS011;45067;44.654;20.200;2023-02-19T17:45:48;43.03;;;25.65;;
59294;SDS011;45067;44.654;20.200;2023-02-19T17:48:15;47.40;;;28.35;;
59294;SDS011;45067;44.654;20.200;2023-02-19T17:50:41;42.63;;;26.25;;
59294;SDS011;45067;44.654;20.200;2023-02-19T17:53:07;37.35;;;24.33;;
59294;SDS011;45067;44.654;20.200;2023-02-19T17:55:33;45.60;;;25.27;;
59294;SDS011;45067;44.654;20.200;2023-02-19T17:58:00;34.97;;;22.35;;